createdAt,value
2019-04-04T00:01:34.326Z,0.87
2019-04-04T00:04:03.130Z,1.50
2019-04-04T00:06:31.956Z,1.07
2019-04-04T00:09:02.057Z,0.70
2019-04-04T00:11:31.169Z,0.50
2019-04-04T00:13:59.993Z,0.93
2019-04-04T00:16:28.825Z,0.60
2019-04-04T00:18:59.047Z,0.60
2019-04-04T00:21:28.070Z,0.30
2019-04-04T00:23:56.890Z,0.60
2019-04-04T00:26:25.723Z,0.60
2019-04-04T00:28:54.497Z,0.70
2019-04-04T00:31:23.325Z,0.77
2019-04-04T00:33:52.045Z,1.10
2019-04-04T00:36:20.837Z,0.87
2019-04-04T00:38:49.661Z,1.50
2019-04-04T00:41:18.391Z,0.87
2019-04-04T00:43:47.174Z,0.60
2019-04-04T00:46:15.993Z,1.43
2019-04-04T00:48:44.793Z,1.00
2019-04-04T00:51:13.582Z,0.77
2019-04-04T00:53:43.037Z,0.60
2019-04-04T00:56:12.339Z,1.57
2019-04-04T00:58:41.069Z,1.23
2019-04-04T01:01:09.990Z,1.80
2019-04-04T01:03:38.786Z,1.63
2019-04-04T01:06:07.582Z,1.70
2019-04-04T01:08:38.877Z,1.53
2019-04-04T01:11:06.969Z,1.00
2019-04-04T01:13:35.679Z,0.80
2019-04-04T01:16:04.481Z,0.43
2019-04-04T01:18:34.968Z,0.80
2019-04-04T01:21:03.722Z,0.40
2019-04-04T01:23:32.470Z,1.50
2019-04-04T01:26:01.362Z,0.20
2019-04-04T01:28:31.657Z,0.73
2019-04-04T01:31:00.482Z,0.60
2019-04-04T01:33:29.214Z,0.90
2019-04-04T01:35:57.975Z,0.93
2019-04-04T01:38:27.095Z,0.93
2019-04-04T01:40:57.109Z,0.50
2019-04-04T01:43:25.816Z,1.60
2019-04-04T01:45:54.549Z,0.73
2019-04-04T01:48:23.277Z,0.53
2019-04-04T01:50:53.734Z,0.57
2019-04-04T01:53:22.390Z,0.33
2019-04-04T01:55:51.114Z,0.47
2019-04-04T01:58:19.877Z,0.60
2019-04-04T02:00:48.597Z,0.40
2019-04-04T02:03:17.313Z,1.00
2019-04-04T02:05:46.135Z,0.63
2019-04-04T02:08:14.862Z,0.40
2019-04-04T02:10:43.585Z,0.40
2019-04-04T02:13:12.329Z,0.53
2019-04-04T02:15:41.055Z,0.20
2019-04-04T02:18:09.874Z,0.20
2019-04-04T02:20:38.630Z,0.60
2019-04-04T02:23:07.365Z,0.50
2019-04-04T02:25:36.156Z,0.43
2019-04-04T02:28:04.977Z,0.37
2019-04-04T02:30:33.786Z,0.40
2019-04-04T02:33:02.582Z,0.83
2019-04-04T02:35:31.325Z,0.30
2019-04-04T02:38:00.045Z,0.47
2019-04-04T02:40:28.766Z,0.30
2019-04-04T02:42:57.696Z,0.40
2019-04-04T02:45:26.418Z,0.80
2019-04-04T02:47:55.145Z,1.00
2019-04-04T02:50:23.950Z,0.70
2019-04-04T02:52:52.723Z,0.83
2019-04-04T02:55:21.489Z,0.60
2019-04-04T02:57:50.316Z,0.70
2019-04-04T03:00:19.111Z,0.50
2019-04-04T03:02:47.829Z,0.77
2019-04-04T03:05:19.275Z,0.93
2019-04-04T03:07:47.018Z,0.53
2019-04-04T03:10:16.795Z,0.50
2019-04-04T03:12:45.679Z,0.50
2019-04-04T03:15:14.397Z,1.40
2019-04-04T03:17:43.116Z,1.07
2019-04-04T03:20:16.141Z,1.13
2019-04-04T03:22:43.706Z,0.40
2019-04-04T03:25:14.700Z,0.53
2019-04-04T03:27:42.889Z,0.30
2019-04-04T03:30:14.702Z,1.23
2019-04-04T03:32:42.159Z,0.87
2019-04-04T03:35:11.057Z,1.13
2019-04-04T03:37:41.010Z,0.50
2019-04-04T03:40:10.340Z,1.10
2019-04-04T03:42:44.026Z,0.90
2019-04-04T03:45:09.639Z,1.00
2019-04-04T03:47:43.109Z,0.57
2019-04-04T03:50:08.787Z,0.70
2019-04-04T03:52:37.511Z,0.47
2019-04-04T03:55:07.204Z,0.30
2019-04-04T03:57:35.971Z,0.50
2019-04-04T04:00:07.576Z,0.80
2019-04-04T04:02:36.502Z,1.63
2019-04-04T04:05:25.551Z,0.43
2019-04-04T04:07:54.350Z,0.53
2019-04-04T04:10:23.286Z,0.93
2019-04-04T04:12:52.039Z,0.50
2019-04-04T04:15:20.829Z,1.07
2019-04-04T04:17:49.558Z,0.50
2019-04-04T04:20:18.318Z,0.43
2019-04-04T04:22:50.305Z,0.83
2019-04-04T04:25:17.424Z,0.57
2019-04-04T04:27:48.306Z,0.40
2019-04-04T04:30:16.716Z,0.50
2019-04-04T04:32:45.521Z,0.60
2019-04-04T04:35:14.247Z,0.30
2019-04-04T04:37:42.980Z,0.50
2019-04-04T04:40:15.121Z,0.30
2019-04-04T04:42:43.687Z,0.90
2019-04-04T04:45:12.713Z,0.40
2019-04-04T04:47:41.551Z,0.80
2019-04-04T04:50:10.288Z,0.50
2019-04-04T04:52:38.994Z,0.53
2019-04-04T04:55:08.221Z,0.70
2019-04-04T04:57:38.167Z,0.50
2019-04-04T05:00:07.448Z,0.50
2019-04-04T05:02:36.263Z,0.70
2019-04-04T05:05:06.282Z,0.80
2019-04-04T05:07:35.001Z,0.67
2019-04-04T05:10:04.956Z,0.67
2019-04-04T05:12:33.751Z,0.43
2019-04-04T05:15:02.504Z,0.30
2019-04-04T05:17:31.312Z,0.50
2019-04-04T05:20:00.023Z,0.20
2019-04-04T05:22:28.772Z,0.60
2019-04-04T05:25:07.862Z,0.27
2019-04-04T05:27:27.921Z,0.40
2019-04-04T05:29:56.676Z,0.40
2019-04-04T05:32:25.414Z,0.50
2019-04-04T05:34:54.113Z,0.43
2019-04-04T05:37:22.871Z,0.73
2019-04-04T05:39:52.438Z,0.40
2019-04-04T05:42:21.966Z,0.40
2019-04-04T05:44:50.717Z,0.37
2019-04-04T05:47:22.882Z,0.20
2019-04-04T05:49:49.835Z,0.47
2019-04-04T05:52:18.593Z,0.27
2019-04-04T05:54:47.311Z,0.63
2019-04-04T05:57:16.032Z,1.13
2019-04-04T05:59:44.822Z,0.40
2019-04-04T06:02:14.656Z,0.50
2019-04-04T06:04:43.362Z,0.43
2019-04-04T06:07:12.182Z,0.50
2019-04-04T06:09:42.067Z,0.50
2019-04-04T06:12:10.867Z,0.40
2019-04-04T06:14:39.591Z,0.40
2019-04-04T06:17:08.338Z,0.63
2019-04-04T06:19:37.075Z,0.37
2019-04-04T06:22:05.793Z,0.50
2019-04-04T06:24:34.547Z,0.37
2019-04-04T06:27:03.397Z,1.07
2019-04-04T06:29:32.226Z,0.90
2019-04-04T06:32:02.187Z,1.00
2019-04-04T06:34:30.970Z,0.67
2019-04-04T06:36:59.710Z,0.30
2019-04-04T06:39:28.446Z,0.30
2019-04-04T06:41:57.198Z,0.63
2019-04-04T06:44:25.998Z,0.67
2019-04-04T06:46:54.789Z,0.37
2019-04-04T06:49:23.542Z,0.20
2019-04-04T06:51:52.270Z,0.60
2019-04-04T06:54:21.034Z,0.70
2019-04-04T06:56:49.773Z,0.20
2019-04-04T06:59:18.604Z,0.60
2019-04-04T07:01:47.621Z,0.60
2019-04-04T07:04:17.432Z,0.33
2019-04-04T07:06:46.228Z,0.30
2019-04-04T07:09:18.201Z,0.37
2019-04-04T07:11:45.430Z,0.13
2019-04-04T07:14:14.225Z,0.50
2019-04-04T07:16:42.973Z,0.40
2019-04-04T07:19:14.199Z,0.30
2019-04-04T07:21:42.070Z,0.40
2019-04-04T07:24:10.857Z,0.30
2019-04-04T07:26:39.678Z,0.53
2019-04-04T07:29:08.401Z,0.37
2019-04-04T07:31:38.383Z,0.30
2019-04-04T07:34:07.400Z,0.60
2019-04-04T07:36:36.153Z,0.37
2019-04-04T07:39:06.052Z,0.50
2019-04-04T07:41:34.797Z,0.50
2019-04-04T07:44:03.530Z,3.63
2019-04-04T07:46:32.255Z,2.80
2019-04-04T07:49:00.997Z,1.83
2019-04-04T07:51:30.314Z,2.23
2019-04-04T07:53:59.699Z,0.90
2019-04-04T07:56:28.502Z,0.57
2019-04-04T07:58:57.252Z,0.53
2019-04-04T08:01:25.994Z,1.03
2019-04-04T08:03:54.712Z,0.50
2019-04-04T08:06:23.470Z,0.40
2019-04-04T08:08:52.199Z,0.40
2019-04-04T08:11:21.026Z,0.40
2019-04-04T08:13:49.769Z,1.07
2019-04-04T08:16:18.498Z,0.63
2019-04-04T08:18:47.223Z,0.40
2019-04-04T08:21:16.013Z,0.40
2019-04-04T08:23:44.744Z,0.60
2019-04-04T08:26:13.459Z,0.63
2019-04-04T08:28:42.276Z,0.80
2019-04-04T08:31:11.018Z,0.87
2019-04-04T08:33:39.834Z,0.53
2019-04-04T08:36:08.562Z,0.50
2019-04-04T08:38:38.283Z,0.50
2019-04-04T08:41:07.043Z,0.40
2019-04-04T08:43:35.794Z,1.20
2019-04-04T08:46:04.509Z,0.10
2019-04-04T08:48:33.296Z,0.20
2019-04-04T08:51:02.031Z,0.33
2019-04-04T08:53:39.967Z,0.30
2019-04-04T08:56:01.229Z,0.13
2019-04-04T08:58:29.981Z,0.27
2019-04-04T09:00:58.701Z,0.30
2019-04-04T09:03:27.445Z,0.47
2019-04-04T09:05:56.211Z,0.30
2019-04-04T09:08:24.938Z,0.50
2019-04-04T09:10:53.678Z,0.30
2019-04-04T09:13:22.470Z,0.37
2019-04-04T09:15:51.263Z,0.20
2019-04-04T09:18:20.013Z,0.27
2019-04-04T09:20:48.752Z,0.40
2019-04-04T09:23:17.465Z,0.37
2019-04-04T09:25:46.216Z,0.30
2019-04-04T09:28:14.991Z,0.30
2019-04-04T09:30:43.813Z,0.40
2019-04-04T09:33:12.530Z,0.80
2019-04-04T09:35:41.321Z,0.10
2019-04-04T09:38:10.076Z,0.20
2019-04-04T09:40:38.806Z,0.30
2019-04-04T09:43:07.530Z,0.20
2019-04-04T09:45:36.356Z,0.10
2019-04-04T09:48:05.382Z,0.40
2019-04-04T09:50:34.102Z,0.30
2019-04-04T09:53:02.853Z,0.30
2019-04-04T09:55:31.579Z,0.30
2019-04-04T09:58:00.373Z,0.30
2019-04-04T10:00:29.220Z,0.30
2019-04-04T10:02:57.944Z,0.30
2019-04-04T10:05:26.666Z,0.23
2019-04-04T10:07:55.485Z,0.20
2019-04-04T10:10:24.205Z,0.10
2019-04-04T10:12:52.937Z,0.57
2019-04-04T10:15:21.745Z,0.80
2019-04-04T10:17:50.470Z,0.23
2019-04-04T10:20:19.257Z,0.27
2019-04-04T10:22:49.510Z,0.30
2019-04-04T10:25:18.325Z,0.40
2019-04-04T10:27:47.056Z,0.30
2019-04-04T10:30:16.109Z,0.30
2019-04-04T10:32:44.833Z,0.20
2019-04-04T10:35:13.667Z,0.40
2019-04-04T10:37:42.438Z,0.80
2019-04-04T10:40:11.360Z,0.67
2019-04-04T10:42:40.162Z,0.30
2019-04-04T10:45:08.906Z,1.07
2019-04-04T10:47:37.730Z,0.43
2019-04-04T10:50:07.256Z,0.60
2019-04-04T10:52:36.066Z,0.40
2019-04-04T10:55:06.671Z,0.87
2019-04-04T10:57:35.395Z,0.30
2019-04-04T11:00:08.774Z,0.40
2019-04-04T11:02:37.495Z,0.20
2019-04-04T11:05:06.536Z,0.90
2019-04-04T11:07:35.685Z,0.33
2019-04-04T11:10:05.718Z,0.50
2019-04-04T11:12:34.548Z,0.17
2019-04-04T11:15:04.059Z,0.50
2019-04-04T11:17:32.786Z,0.30
2019-04-04T11:20:01.621Z,0.70
2019-04-04T11:22:30.353Z,0.40
2019-04-04T11:24:59.070Z,0.37
2019-04-04T11:27:27.826Z,0.13
2019-04-04T11:29:56.602Z,0.70
2019-04-04T11:32:25.328Z,0.63
2019-04-04T11:34:54.079Z,0.40
2019-04-04T11:37:22.805Z,0.50
2019-04-04T11:39:54.854Z,0.50
2019-04-04T11:42:21.995Z,0.40
2019-04-04T11:44:50.722Z,0.50
2019-04-04T11:47:19.448Z,0.80
2019-04-04T11:49:48.214Z,1.73
2019-04-04T11:52:16.937Z,0.60
2019-04-04T11:54:58.881Z,0.60
2019-04-04T11:57:27.961Z,0.20
2019-04-04T11:59:56.858Z,0.47
2019-04-04T12:02:27.478Z,0.40
2019-04-04T12:04:57.766Z,0.40
2019-04-04T12:07:26.747Z,0.63
2019-04-04T12:10:06.702Z,0.40
2019-04-04T12:12:25.931Z,1.20
2019-04-04T12:14:54.657Z,0.50
2019-04-04T12:17:23.524Z,0.30
2019-04-04T12:19:52.250Z,0.47
2019-04-04T12:22:20.973Z,0.43
2019-04-04T12:24:49.727Z,0.47
2019-04-04T12:27:18.461Z,0.30
2019-04-04T12:29:47.203Z,0.50
2019-04-04T12:32:15.974Z,0.43
2019-04-04T12:34:44.702Z,0.37
2019-04-04T12:37:13.430Z,0.40
2019-04-04T12:39:44.379Z,0.63
2019-04-04T12:42:12.553Z,0.37
2019-04-04T12:44:41.313Z,1.13
2019-04-04T12:47:10.035Z,0.40
2019-04-04T12:49:38.824Z,0.77
2019-04-04T12:52:07.575Z,0.83
2019-04-04T12:54:36.301Z,2.53
2019-04-04T12:57:05.026Z,5.93
2019-04-04T12:59:33.788Z,7.30
2019-04-04T13:02:02.579Z,8.33
2019-04-04T13:04:32.195Z,7.80
2019-04-04T13:07:01.234Z,8.70
2019-04-04T13:09:29.963Z,9.67
2019-04-04T13:11:58.765Z,8.47
2019-04-04T13:14:27.521Z,7.90
2019-04-04T13:16:56.245Z,6.77
2019-04-04T13:19:24.970Z,3.53
2019-04-04T13:21:53.813Z,1.90
2019-04-04T13:24:22.638Z,1.43
2019-04-04T13:26:51.359Z,1.67
2019-04-04T13:29:20.147Z,1.83
2019-04-04T13:31:48.910Z,1.20
2019-04-04T13:34:17.664Z,1.87
2019-04-04T13:36:46.474Z,1.37
2019-04-04T13:39:15.270Z,0.80
2019-04-04T13:41:45.722Z,0.80
2019-04-04T13:44:14.425Z,1.33
2019-04-04T13:46:43.330Z,2.00
2019-04-04T13:49:11.999Z,1.90
2019-04-04T13:51:40.720Z,1.07
2019-04-04T13:54:09.481Z,1.00
2019-04-04T13:56:38.273Z,1.57
2019-04-04T13:59:07.030Z,0.80
2019-04-04T14:01:35.755Z,1.13
2019-04-04T14:04:04.482Z,1.43
2019-04-04T14:06:33.226Z,1.03
2019-04-04T14:09:01.952Z,2.10
2019-04-04T14:11:30.798Z,1.00
2019-04-04T14:13:59.563Z,1.63
2019-04-04T14:16:28.289Z,1.57
2019-04-04T14:18:57.007Z,1.13
2019-04-04T14:21:25.849Z,1.57
2019-04-04T14:23:56.898Z,1.43
2019-04-04T14:26:24.958Z,1.93
2019-04-04T14:28:53.694Z,1.50
2019-04-04T14:31:22.447Z,0.93
2019-04-04T14:33:51.249Z,1.30
2019-04-04T14:36:20.006Z,1.63
2019-04-04T14:38:48.730Z,1.67
2019-04-04T14:41:17.486Z,1.30
2019-04-04T14:43:46.234Z,1.40
2019-04-04T14:46:14.983Z,1.30
2019-04-04T14:48:43.691Z,1.90
2019-04-04T14:51:12.446Z,1.90
2019-04-04T14:53:41.179Z,1.93
2019-04-04T14:56:09.970Z,2.47
2019-04-04T14:58:39.944Z,1.83
2019-04-04T15:01:08.735Z,2.33
2019-04-04T15:03:41.998Z,1.40
2019-04-04T15:06:09.561Z,1.23
2019-04-04T15:08:38.366Z,2.23
2019-04-04T15:11:07.094Z,2.03
2019-04-04T15:13:35.917Z,1.80
2019-04-04T15:16:15.976Z,2.00
2019-04-04T15:18:44.795Z,2.30
2019-04-04T15:21:13.719Z,2.03
2019-04-04T15:23:42.508Z,1.73
2019-04-04T15:26:11.268Z,2.30
2019-04-04T15:28:40.003Z,3.73
2019-04-04T15:31:08.814Z,2.33
2019-04-04T15:33:37.570Z,4.07
2019-04-04T15:36:06.301Z,3.50
2019-04-04T15:38:35.099Z,4.03
2019-04-04T15:41:03.851Z,4.23
2019-04-04T15:43:32.646Z,5.07
2019-04-04T15:46:01.369Z,5.27
2019-04-04T15:48:30.167Z,5.20
2019-04-04T15:50:58.923Z,7.23
2019-04-04T15:53:29.146Z,7.27
2019-04-04T15:55:57.941Z,7.20
2019-04-04T15:58:26.668Z,7.30
2019-04-04T16:00:55.577Z,8.20
2019-04-04T16:03:24.309Z,8.87
2019-04-04T16:05:53.116Z,7.97
2019-04-04T16:08:21.877Z,6.53
2019-04-04T16:10:50.610Z,6.90
2019-04-04T16:13:19.438Z,5.17
2019-04-04T16:15:48.189Z,5.87
2019-04-04T16:18:16.981Z,6.57
2019-04-04T16:20:45.791Z,5.70
2019-04-04T16:23:14.748Z,6.57
2019-04-04T16:25:44.476Z,5.37
2019-04-04T16:28:13.374Z,6.37
2019-04-04T16:30:42.240Z,6.97
2019-04-04T16:33:11.094Z,6.13
2019-04-04T16:35:40.031Z,7.20
2019-04-04T16:38:08.875Z,6.93
2019-04-04T16:40:37.664Z,6.97
2019-04-04T16:43:06.479Z,6.73
2019-04-04T16:45:35.225Z,8.13
2019-04-04T16:48:04.041Z,7.80
2019-04-04T16:50:32.934Z,7.37
2019-04-04T16:53:01.717Z,8.23
2019-04-04T16:55:30.508Z,7.43
2019-04-04T16:57:59.235Z,7.37
2019-04-04T17:00:28.291Z,7.77
2019-04-04T17:02:57.016Z,7.70
2019-04-04T17:05:25.836Z,9.40
2019-04-04T17:07:54.585Z,8.00
2019-04-04T17:10:23.310Z,7.70
2019-04-04T17:12:52.065Z,7.13
2019-04-04T17:15:20.815Z,8.93
2019-04-04T17:17:49.530Z,7.13
2019-04-04T17:20:20.664Z,7.80
2019-04-04T17:22:49.066Z,9.83
2019-04-04T17:25:17.869Z,10.73
2019-04-04T17:27:47.049Z,8.80
2019-04-04T17:30:17.582Z,8.07
2019-04-04T17:32:48.443Z,9.77
2019-04-04T17:35:16.811Z,8.60
2019-04-04T17:37:45.898Z,7.43
2019-04-04T17:40:14.843Z,8.30
2019-04-04T17:42:43.993Z,6.27
2019-04-04T17:45:13.037Z,7.73
2019-04-04T17:47:41.992Z,9.27
2019-04-04T17:50:12.454Z,9.30
2019-04-04T17:52:41.360Z,8.07
2019-04-04T17:55:11.281Z,9.57
2019-04-04T17:57:40.038Z,8.73
2019-04-04T18:00:10.422Z,8.43
2019-04-04T18:02:39.154Z,8.70
2019-04-04T18:05:10.202Z,7.80
2019-04-04T18:07:38.939Z,6.67
2019-04-04T18:10:08.253Z,8.07
2019-04-04T18:12:40.460Z,10.23
2019-04-04T18:15:10.578Z,9.20
2019-04-04T18:17:39.310Z,8.50
2019-04-04T18:20:08.664Z,9.10
2019-04-04T18:22:37.760Z,8.07
2019-04-04T18:25:07.585Z,6.93
2019-04-04T18:27:36.467Z,9.33
2019-04-04T18:30:12.189Z,8.80
2019-04-04T18:32:40.962Z,8.10
2019-04-04T18:35:09.945Z,8.57
2019-04-04T18:37:40.642Z,8.57
2019-04-04T18:40:10.260Z,7.80
2019-04-04T18:42:38.998Z,10.80
2019-04-04T18:45:08.049Z,7.70
2019-04-04T18:47:36.774Z,8.87
2019-04-04T18:50:06.881Z,7.03
2019-04-04T18:52:35.712Z,8.17
2019-04-04T18:55:18.725Z,7.63
2019-04-04T18:57:36.702Z,8.47
2019-04-04T19:00:11.282Z,10.10
2019-04-04T19:02:40.820Z,8.37
2019-04-04T19:05:10.260Z,8.53
2019-04-04T19:07:39.908Z,8.83
2019-04-04T19:10:09.213Z,7.27
2019-04-04T19:12:37.947Z,7.90
2019-04-04T19:15:07.880Z,6.47
2019-04-04T19:17:37.103Z,6.40
2019-04-04T19:20:10.177Z,7.53
2019-04-04T19:22:39.410Z,5.43
2019-04-04T19:25:08.533Z,7.70
2019-04-04T19:27:37.334Z,5.80
2019-04-04T19:30:10.765Z,5.73
2019-04-04T19:32:39.559Z,7.63
2019-04-04T19:35:09.123Z,6.23
2019-04-04T19:37:37.847Z,8.73
2019-04-04T19:40:07.237Z,6.03
2019-04-04T19:42:37.270Z,5.70
2019-04-04T19:45:07.712Z,6.70
2019-04-04T19:47:36.438Z,5.63
2019-04-04T19:50:08.258Z,6.90
2019-04-04T19:52:37.082Z,8.60
2019-04-04T19:55:06.227Z,11.63
2019-04-04T19:57:35.026Z,8.43
2019-04-04T20:00:09.077Z,7.40
2019-04-04T20:02:37.806Z,8.10
2019-04-04T20:05:08.171Z,7.43
2019-04-04T20:07:36.890Z,8.47
2019-04-04T20:10:07.201Z,7.00
2019-04-04T20:12:35.950Z,6.57
2019-04-04T20:15:07.448Z,4.97
2019-04-04T20:17:36.171Z,5.97
2019-04-04T20:20:07.929Z,5.00
2019-04-04T20:22:36.646Z,4.93
2019-04-04T20:25:06.574Z,7.00
2019-04-04T20:27:35.335Z,5.50
2019-04-04T20:30:09.614Z,6.00
2019-04-04T20:32:38.378Z,6.40
2019-04-04T20:35:08.103Z,7.60
2019-04-04T20:37:36.833Z,6.13
2019-04-04T20:40:08.896Z,6.07
2019-04-04T20:42:37.667Z,6.17
2019-04-04T20:45:06.798Z,6.43
2019-04-04T20:47:35.622Z,6.43
2019-04-04T20:50:06.552Z,5.60
2019-04-04T20:52:35.274Z,6.30
2019-04-04T20:55:05.103Z,5.00
2019-04-04T20:57:33.842Z,6.67
2019-04-04T21:00:02.573Z,6.63
2019-04-04T21:02:31.397Z,5.60
2019-04-04T21:05:00.126Z,6.30
2019-04-04T21:07:28.852Z,6.93
2019-04-04T21:09:57.712Z,5.97
2019-04-04T21:12:26.438Z,8.80
2019-04-04T21:14:55.235Z,7.23
2019-04-04T21:17:24.058Z,6.50
2019-04-04T21:19:53.901Z,6.47
2019-04-04T21:22:27.801Z,6.30
2019-04-04T21:24:53.019Z,7.60
2019-04-04T21:27:21.848Z,6.77
2019-04-04T21:29:50.569Z,7.33
2019-04-04T21:32:19.321Z,6.73
2019-04-04T21:34:48.038Z,8.70
2019-04-04T21:37:16.838Z,7.03
2019-04-04T21:39:45.598Z,6.93
2019-04-04T21:42:14.374Z,6.13
2019-04-04T21:44:43.111Z,8.47
2019-04-04T21:47:11.862Z,7.10
2019-04-04T21:49:40.590Z,8.20
2019-04-04T21:52:09.388Z,7.80
2019-04-04T21:54:38.278Z,7.13
2019-04-04T21:57:07.100Z,6.47
2019-04-04T21:59:35.823Z,5.97
2019-04-04T22:02:04.975Z,7.70
2019-04-04T22:04:33.706Z,7.63
2019-04-04T22:07:02.432Z,5.80
2019-04-04T22:09:33.585Z,5.93
2019-04-04T22:12:01.554Z,6.73
2019-04-04T22:14:30.278Z,7.00
2019-04-04T22:16:59.030Z,6.30
2019-04-04T22:19:27.760Z,6.10
2019-04-04T22:21:56.482Z,7.40
2019-04-04T22:24:25.245Z,6.07
2019-04-04T22:26:54.030Z,8.13
2019-04-04T22:29:22.772Z,6.97
2019-04-04T22:31:51.494Z,8.47
2019-04-04T22:34:20.227Z,8.50
2019-04-04T22:36:49.031Z,8.00
2019-04-04T22:39:17.787Z,7.17
2019-04-04T22:41:46.614Z,6.57
2019-04-04T22:44:15.344Z,7.63
2019-04-04T22:46:44.200Z,8.47
2019-04-04T22:49:12.930Z,8.43
2019-04-04T22:51:41.657Z,8.67
2019-04-04T22:54:10.407Z,6.43
2019-04-04T22:56:39.141Z,8.37
2019-04-04T22:59:07.868Z,7.97
2019-04-04T23:01:36.617Z,8.30
2019-04-04T23:04:05.361Z,8.40
2019-04-04T23:06:34.185Z,9.57
2019-04-04T23:09:03.010Z,9.47
2019-04-04T23:11:31.801Z,9.03
2019-04-04T23:14:00.602Z,9.00
2019-04-04T23:16:29.362Z,8.43
2019-04-04T23:18:58.101Z,8.43
2019-04-04T23:21:26.829Z,7.33
2019-04-04T23:23:55.579Z,7.00
2019-04-04T23:26:24.374Z,8.53
2019-04-04T23:28:53.105Z,7.90
2019-04-04T23:31:21.894Z,8.40
2019-04-04T23:33:50.633Z,10.10
2019-04-04T23:36:19.366Z,10.60
2019-04-04T23:38:48.109Z,7.50
2019-04-04T23:41:16.934Z,7.87
2019-04-04T23:43:45.657Z,7.30
2019-04-04T23:46:14.522Z,8.03
2019-04-04T23:48:43.250Z,7.67
2019-04-04T23:51:13.097Z,9.03
2019-04-04T23:53:42.431Z,9.13
2019-04-04T23:56:11.161Z,10.03
2019-04-04T23:58:39.889Z,11.47
